sensor_id;sensor_type;location;lat;lon;timestamp;P1;durP1;ratioP1;P2;durP2;ratioP2
74245;SDS011;62601;51.044;13.788;2023-07-20T00:00:25;3.90;;;3.60;;
74245;SDS011;62601;51.044;13.788;2023-07-20T00:02:45;4.70;;;3.60;;
74245;SDS011;62601;51.044;13.788;2023-07-20T00:05:05;4.40;;;4.00;;
74245;SDS011;62601;51.044;13.788;2023-07-20T00:07:25;3.90;;;3.60;;
74245;SDS011;62601;51.044;13.788;2023-07-20T00:09:45;5.87;;;4.00;;
74245;SDS011;62601;51.044;13.788;2023-07-20T00:12:06;3.93;;;3.57;;
74245;SDS011;62601;51.044;13.788;2023-07-20T00:14:26;4.73;;;3.40;;
74245;SDS011;62601;51.044;13.788;2023-07-20T00:16:46;4.13;;;3.67;;
74245;SDS011;62601;51.044;13.788;2023-07-20T00:19:06;3.70;;;3.40;;
74245;SDS011;62601;51.044;13.788;2023-07-20T00:21:26;4.03;;;3.70;;
74245;SDS011;62601;51.044;13.788;2023-07-20T00:23:46;5.97;;;3.80;;
74245;SDS011;62601;51.044;13.788;2023-07-20T00:26:06;4.30;;;3.50;;
74245;SDS011;62601;51.044;13.788;2023-07-20T00:28:27;3.80;;;3.10;;
74245;SDS011;62601;51.044;13.788;2023-07-20T00:30:47;3.70;;;3.40;;
74245;SDS011;62601;51.044;13.788;2023-07-20T00:33:09;3.83;;;3.50;;
74245;SDS011;62601;51.044;13.788;2023-07-20T00:35:30;4.83;;;3.10;;
74245;SDS011;62601;51.044;13.788;2023-07-20T00:37:50;3.60;;;3.03;;
74245;SDS011;62601;51.044;13.788;2023-07-20T00:40:10;3.60;;;3.30;;
74245;SDS011;62601;51.044;13.788;2023-07-20T00:42:30;3.40;;;3.10;;
74245;SDS011;62601;51.044;13.788;2023-07-20T00:44:50;6.50;;;3.67;;
74245;SDS011;62601;51.044;13.788;2023-07-20T00:47:10;4.80;;;2.90;;
74245;SDS011;62601;51.044;13.788;2023-07-20T00:49:31;4.03;;;3.73;;
74245;SDS011;62601;51.044;13.788;2023-07-20T00:51:51;3.63;;;3.13;;
74245;SDS011;62601;51.044;13.788;2023-07-20T00:54:11;3.70;;;2.80;;
74245;SDS011;62601;51.044;13.788;2023-07-20T00:56:32;4.40;;;2.50;;
74245;SDS011;62601;51.044;13.788;2023-07-20T00:58:52;2.60;;;2.40;;
74245;SDS011;62601;51.044;13.788;2023-07-20T01:01:12;7.53;;;2.80;;
74245;SDS011;62601;51.044;13.788;2023-07-20T01:03:32;2.73;;;2.53;;
74245;SDS011;62601;51.044;13.788;2023-07-20T01:05:54;2.83;;;2.10;;
74245;SDS011;62601;51.044;13.788;2023-07-20T01:08:19;3.40;;;3.20;;
74245;SDS011;62601;51.044;13.788;2023-07-20T01:10:46;2.47;;;2.27;;
74245;SDS011;62601;51.044;13.788;2023-07-20T01:13:10;3.43;;;2.30;;
74245;SDS011;62601;51.044;13.788;2023-07-20T01:15:30;2.93;;;1.93;;
74245;SDS011;62601;51.044;13.788;2023-07-20T01:17:50;2.30;;;2.00;;
74245;SDS011;62601;51.044;13.788;2023-07-20T01:20:11;3.30;;;2.60;;
74245;SDS011;62601;51.044;13.788;2023-07-20T01:25:16;2.20;;;2.00;;
74245;SDS011;62601;51.044;13.788;2023-07-20T01:30:16;2.10;;;1.70;;
74245;SDS011;62601;51.044;13.788;2023-07-20T01:32:40;2.40;;;1.60;;
74245;SDS011;62601;51.044;13.788;2023-07-20T01:35:02;1.70;;;1.60;;
74245;SDS011;62601;51.044;13.788;2023-07-20T01:37:22;3.77;;;1.70;;
74245;SDS011;62601;51.044;13.788;2023-07-20T01:39:43;3.53;;;1.40;;
74245;SDS011;62601;51.044;13.788;2023-07-20T01:42:03;3.17;;;1.63;;
74245;SDS011;62601;51.044;13.788;2023-07-20T01:44:23;2.90;;;1.20;;
74245;SDS011;62601;51.044;13.788;2023-07-20T01:46:43;2.50;;;1.87;;
74245;SDS011;62601;51.044;13.788;2023-07-20T01:49:03;7.80;;;2.10;;
74245;SDS011;62601;51.044;13.788;2023-07-20T01:51:24;2.43;;;1.60;;
74245;SDS011;62601;51.044;13.788;2023-07-20T01:53:44;3.63;;;1.40;;
74245;SDS011;62601;51.044;13.788;2023-07-20T01:56:04;2.10;;;1.53;;
74245;SDS011;62601;51.044;13.788;2023-07-20T01:58:24;3.20;;;1.90;;
74245;SDS011;62601;51.044;13.788;2023-07-20T02:00:44;3.17;;;2.03;;
74245;SDS011;62601;51.044;13.788;2023-07-20T02:03:04;2.30;;;1.93;;
74245;SDS011;62601;51.044;13.788;2023-07-20T02:05:24;1.80;;;1.70;;
74245;SDS011;62601;51.044;13.788;2023-07-20T02:07:45;2.50;;;2.07;;
74245;SDS011;62601;51.044;13.788;2023-07-20T02:10:05;1.90;;;1.70;;
74245;SDS011;62601;51.044;13.788;2023-07-20T02:12:25;3.17;;;2.27;;
74245;SDS011;62601;51.044;13.788;2023-07-20T02:14:45;3.83;;;2.37;;
74245;SDS011;62601;51.044;13.788;2023-07-20T02:17:05;4.30;;;2.17;;
74245;SDS011;62601;51.044;13.788;2023-07-20T02:19:25;5.10;;;2.60;;
74245;SDS011;62601;51.044;13.788;2023-07-20T02:21:45;2.83;;;2.20;;
74245;SDS011;62601;51.044;13.788;2023-07-20T02:24:06;4.80;;;2.60;;
74245;SDS011;62601;51.044;13.788;2023-07-20T02:26:26;4.07;;;2.43;;
74245;SDS011;62601;51.044;13.788;2023-07-20T02:28:46;5.43;;;2.87;;
74245;SDS011;62601;51.044;13.788;2023-07-20T02:31:06;6.47;;;3.70;;
74245;SDS011;62601;51.044;13.788;2023-07-20T02:33:26;4.70;;;3.53;;
74245;SDS011;62601;51.044;13.788;2023-07-20T02:35:46;5.20;;;3.63;;
74245;SDS011;62601;51.044;13.788;2023-07-20T02:38:06;5.10;;;3.03;;
74245;SDS011;62601;51.044;13.788;2023-07-20T02:40:26;6.50;;;3.73;;
74245;SDS011;62601;51.044;13.788;2023-07-20T02:42:47;4.30;;;3.43;;
74245;SDS011;62601;51.044;13.788;2023-07-20T02:45:07;5.27;;;3.80;;
74245;SDS011;62601;51.044;13.788;2023-07-20T02:47:27;4.80;;;4.30;;
74245;SDS011;62601;51.044;13.788;2023-07-20T02:49:48;4.70;;;4.03;;
74245;SDS011;62601;51.044;13.788;2023-07-20T02:52:08;4.87;;;4.40;;
74245;SDS011;62601;51.044;13.788;2023-07-20T02:54:29;9.83;;;4.87;;
74245;SDS011;62601;51.044;13.788;2023-07-20T02:56:49;4.70;;;4.20;;
74245;SDS011;62601;51.044;13.788;2023-07-20T02:59:09;6.33;;;4.23;;
74245;SDS011;62601;51.044;13.788;2023-07-20T03:01:29;5.00;;;4.30;;
74245;SDS011;62601;51.044;13.788;2023-07-20T03:03:49;9.60;;;5.70;;
74245;SDS011;62601;51.044;13.788;2023-07-20T03:06:09;5.07;;;4.57;;
74245;SDS011;62601;51.044;13.788;2023-07-20T03:08:30;6.40;;;5.00;;
74245;SDS011;62601;51.044;13.788;2023-07-20T03:10:50;7.00;;;5.17;;
74245;SDS011;62601;51.044;13.788;2023-07-20T03:13:10;5.30;;;4.67;;
74245;SDS011;62601;51.044;13.788;2023-07-20T03:15:30;9.00;;;5.30;;
74245;SDS011;62601;51.044;13.788;2023-07-20T03:17:50;9.30;;;4.63;;
74245;SDS011;62601;51.044;13.788;2023-07-20T03:20:10;4.83;;;4.43;;
74245;SDS011;62601;51.044;13.788;2023-07-20T03:22:30;6.30;;;5.13;;
74245;SDS011;62601;51.044;13.788;2023-07-20T03:24:51;7.03;;;4.73;;
74245;SDS011;62601;51.044;13.788;2023-07-20T03:27:11;7.50;;;5.23;;
74245;SDS011;62601;51.044;13.788;2023-07-20T03:29:31;6.80;;;4.57;;
74245;SDS011;62601;51.044;13.788;2023-07-20T03:31:51;6.50;;;4.67;;
74245;SDS011;62601;51.044;13.788;2023-07-20T03:34:11;6.20;;;4.80;;
74245;SDS011;62601;51.044;13.788;2023-07-20T03:36:32;8.47;;;5.20;;
74245;SDS011;62601;51.044;13.788;2023-07-20T03:38:52;8.70;;;4.77;;
74245;SDS011;62601;51.044;13.788;2023-07-20T03:41:12;7.03;;;5.30;;
74245;SDS011;62601;51.044;13.788;2023-07-20T03:43:32;8.53;;;5.07;;
74245;SDS011;62601;51.044;13.788;2023-07-20T03:45:52;5.40;;;4.90;;
74245;SDS011;62601;51.044;13.788;2023-07-20T03:48:13;6.47;;;4.53;;
74245;SDS011;62601;51.044;13.788;2023-07-20T03:50:33;6.30;;;4.60;;
74245;SDS011;62601;51.044;13.788;2023-07-20T03:52:53;6.27;;;4.80;;
74245;SDS011;62601;51.044;13.788;2023-07-20T03:55:13;6.60;;;4.70;;
74245;SDS011;62601;51.044;13.788;2023-07-20T03:57:33;6.47;;;4.37;;
74245;SDS011;62601;51.044;13.788;2023-07-20T03:59:53;8.67;;;4.27;;
74245;SDS011;62601;51.044;13.788;2023-07-20T04:02:13;6.00;;;5.10;;
74245;SDS011;62601;51.044;13.788;2023-07-20T04:04:33;7.07;;;4.63;;
74245;SDS011;62601;51.044;13.788;2023-07-20T04:06:53;5.90;;;5.10;;
74245;SDS011;62601;51.044;13.788;2023-07-20T04:09:13;8.03;;;5.20;;
74245;SDS011;62601;51.044;13.788;2023-07-20T04:11:34;5.23;;;4.67;;
74245;SDS011;62601;51.044;13.788;2023-07-20T04:13:54;7.30;;;5.27;;
74245;SDS011;62601;51.044;13.788;2023-07-20T04:16:14;11.43;;;5.57;;
74245;SDS011;62601;51.044;13.788;2023-07-20T04:18:34;7.53;;;5.47;;
74245;SDS011;62601;51.044;13.788;2023-07-20T04:20:54;11.43;;;5.37;;
74245;SDS011;62601;51.044;13.788;2023-07-20T04:23:14;8.77;;;5.70;;
74245;SDS011;62601;51.044;13.788;2023-07-20T04:25:34;7.97;;;5.10;;
74245;SDS011;62601;51.044;13.788;2023-07-20T04:27:54;8.93;;;4.60;;
74245;SDS011;62601;51.044;13.788;2023-07-20T04:30:16;5.70;;;4.73;;
74245;SDS011;62601;51.044;13.788;2023-07-20T04:32:37;5.60;;;5.10;;
74245;SDS011;62601;51.044;13.788;2023-07-20T04:34:57;7.87;;;4.90;;
74245;SDS011;62601;51.044;13.788;2023-07-20T04:37:17;5.20;;;4.70;;
74245;SDS011;62601;51.044;13.788;2023-07-20T04:39:37;9.27;;;4.80;;
74245;SDS011;62601;51.044;13.788;2023-07-20T04:41:57;6.17;;;5.07;;
74245;SDS011;62601;51.044;13.788;2023-07-20T04:44:17;5.23;;;4.73;;
74245;SDS011;62601;51.044;13.788;2023-07-20T04:46:37;5.90;;;5.30;;
74245;SDS011;62601;51.044;13.788;2023-07-20T04:48:58;10.80;;;5.53;;
74245;SDS011;62601;51.044;13.788;2023-07-20T04:51:18;6.30;;;5.30;;
74245;SDS011;62601;51.044;13.788;2023-07-20T04:53:38;9.67;;;5.80;;
74245;SDS011;62601;51.044;13.788;2023-07-20T04:55:58;9.00;;;6.60;;
74245;SDS011;62601;51.044;13.788;2023-07-20T04:58:18;14.00;;;6.70;;
74245;SDS011;62601;51.044;13.788;2023-07-20T05:00:39;9.93;;;6.30;;
74245;SDS011;62601;51.044;13.788;2023-07-20T05:02:59;8.60;;;5.60;;
74245;SDS011;62601;51.044;13.788;2023-07-20T05:05:19;8.77;;;6.40;;
74245;SDS011;62601;51.044;13.788;2023-07-20T05:07:39;10.13;;;6.57;;
74245;SDS011;62601;51.044;13.788;2023-07-20T05:09:59;10.93;;;6.40;;
74245;SDS011;62601;51.044;13.788;2023-07-20T05:12:19;7.97;;;6.57;;
74245;SDS011;62601;51.044;13.788;2023-07-20T05:14:39;8.57;;;6.77;;
74245;SDS011;62601;51.044;13.788;2023-07-20T05:17:00;8.60;;;6.10;;
74245;SDS011;62601;51.044;13.788;2023-07-20T05:19:20;10.17;;;6.40;;
74245;SDS011;62601;51.044;13.788;2023-07-20T05:21:40;6.17;;;5.53;;
74245;SDS011;62601;51.044;13.788;2023-07-20T05:24:00;7.70;;;5.87;;
74245;SDS011;62601;51.044;13.788;2023-07-20T05:26:20;6.63;;;5.93;;
74245;SDS011;62601;51.044;13.788;2023-07-20T05:28:40;7.30;;;5.27;;
74245;SDS011;62601;51.044;13.788;2023-07-20T05:31:02;7.17;;;5.40;;
74245;SDS011;62601;51.044;13.788;2023-07-20T05:33:22;9.97;;;5.83;;
74245;SDS011;62601;51.044;13.788;2023-07-20T05:35:42;8.50;;;5.67;;
74245;SDS011;62601;51.044;13.788;2023-07-20T05:38:03;15.83;;;6.10;;
74245;SDS011;62601;51.044;13.788;2023-07-20T05:40:23;7.67;;;5.97;;
74245;SDS011;62601;51.044;13.788;2023-07-20T05:42:43;7.17;;;5.73;;
74245;SDS011;62601;51.044;13.788;2023-07-20T05:45:03;9.50;;;6.20;;
74245;SDS011;62601;51.044;13.788;2023-07-20T05:47:23;6.60;;;5.60;;
74245;SDS011;62601;51.044;13.788;2023-07-20T05:49:44;9.90;;;6.03;;
74245;SDS011;62601;51.044;13.788;2023-07-20T05:52:04;15.87;;;6.47;;
74245;SDS011;62601;51.044;13.788;2023-07-20T05:54:24;7.60;;;4.93;;
74245;SDS011;62601;51.044;13.788;2023-07-20T05:56:45;5.80;;;5.30;;
74245;SDS011;62601;51.044;13.788;2023-07-20T05:59:05;7.00;;;4.93;;
74245;SDS011;62601;51.044;13.788;2023-07-20T06:01:25;9.23;;;5.50;;
74245;SDS011;62601;51.044;13.788;2023-07-20T06:03:45;5.67;;;5.17;;
74245;SDS011;62601;51.044;13.788;2023-07-20T06:06:05;8.87;;;5.60;;
74245;SDS011;62601;51.044;13.788;2023-07-20T06:08:25;6.43;;;5.73;;
74245;SDS011;62601;51.044;13.788;2023-07-20T06:10:49;7.10;;;5.77;;
74245;SDS011;62601;51.044;13.788;2023-07-20T06:13:09;6.90;;;5.20;;
74245;SDS011;62601;51.044;13.788;2023-07-20T06:15:33;8.67;;;5.10;;
74245;SDS011;62601;51.044;13.788;2023-07-20T06:17:53;8.43;;;6.07;;
74245;SDS011;62601;51.044;13.788;2023-07-20T06:20:14;6.37;;;5.77;;
74245;SDS011;62601;51.044;13.788;2023-07-20T06:22:34;6.40;;;5.77;;
74245;SDS011;62601;51.044;13.788;2023-07-20T06:24:54;8.83;;;6.63;;
74245;SDS011;62601;51.044;13.788;2023-07-20T06:27:14;6.90;;;6.20;;
74245;SDS011;62601;51.044;13.788;2023-07-20T06:29:34;6.40;;;5.80;;
74245;SDS011;62601;51.044;13.788;2023-07-20T06:31:54;6.93;;;5.80;;
74245;SDS011;62601;51.044;13.788;2023-07-20T06:34:14;7.77;;;6.97;;
74245;SDS011;62601;51.044;13.788;2023-07-20T06:36:34;7.20;;;5.80;;
74245;SDS011;62601;51.044;13.788;2023-07-20T06:38:58;12.40;;;5.80;;
74245;SDS011;62601;51.044;13.788;2023-07-20T06:41:18;11.40;;;5.63;;
74245;SDS011;62601;51.044;13.788;2023-07-20T06:43:38;7.43;;;5.60;;
74245;SDS011;62601;51.044;13.788;2023-07-20T06:45:58;5.40;;;4.90;;
74245;SDS011;62601;51.044;13.788;2023-07-20T06:48:18;5.97;;;4.50;;
74245;SDS011;62601;51.044;13.788;2023-07-20T06:50:38;6.47;;;4.97;;
74245;SDS011;62601;51.044;13.788;2023-07-20T06:52:58;6.70;;;5.10;;
74245;SDS011;62601;51.044;13.788;2023-07-20T06:55:18;5.87;;;5.27;;
74245;SDS011;62601;51.044;13.788;2023-07-20T06:57:39;6.10;;;5.60;;
74245;SDS011;62601;51.044;13.788;2023-07-20T06:59:59;4.60;;;4.30;;
74245;SDS011;62601;51.044;13.788;2023-07-20T07:02:19;4.80;;;4.40;;
74245;SDS011;62601;51.044;13.788;2023-07-20T07:04:39;5.50;;;5.00;;
74245;SDS011;62601;51.044;13.788;2023-07-20T07:06:59;5.73;;;4.30;;
74245;SDS011;62601;51.044;13.788;2023-07-20T07:09:19;4.30;;;3.90;;
74245;SDS011;62601;51.044;13.788;2023-07-20T07:11:39;5.23;;;4.27;;
74245;SDS011;62601;51.044;13.788;2023-07-20T07:13:59;6.70;;;4.30;;
74245;SDS011;62601;51.044;13.788;2023-07-20T07:16:20;4.37;;;4.03;;
74245;SDS011;62601;51.044;13.788;2023-07-20T07:18:40;6.70;;;4.67;;
74245;SDS011;62601;51.044;13.788;2023-07-20T07:21:00;6.10;;;4.50;;
74245;SDS011;62601;51.044;13.788;2023-07-20T07:23:20;4.30;;;4.00;;
74245;SDS011;62601;51.044;13.788;2023-07-20T07:25:40;6.70;;;4.33;;
74245;SDS011;62601;51.044;13.788;2023-07-20T07:28:01;5.33;;;4.77;;
74245;SDS011;62601;51.044;13.788;2023-07-20T07:30:21;4.73;;;4.23;;
74245;SDS011;62601;51.044;13.788;2023-07-20T07:32:42;7.80;;;5.20;;
74245;SDS011;62601;51.044;13.788;2023-07-20T07:35:02;5.30;;;4.93;;
74245;SDS011;62601;51.044;13.788;2023-07-20T07:37:22;7.23;;;5.20;;
74245;SDS011;62601;51.044;13.788;2023-07-20T07:39:42;5.70;;;5.20;;
74245;SDS011;62601;51.044;13.788;2023-07-20T07:42:02;5.40;;;4.90;;
74245;SDS011;62601;51.044;13.788;2023-07-20T07:44:23;8.60;;;6.87;;
74245;SDS011;62601;51.044;13.788;2023-07-20T07:46:43;5.83;;;4.77;;
74245;SDS011;62601;51.044;13.788;2023-07-20T07:49:03;5.03;;;4.27;;
74245;SDS011;62601;51.044;13.788;2023-07-20T07:51:23;4.30;;;4.00;;
74245;SDS011;62601;51.044;13.788;2023-07-20T07:53:43;4.60;;;4.20;;
74245;SDS011;62601;51.044;13.788;2023-07-20T07:56:06;4.07;;;3.77;;
74245;SDS011;62601;51.044;13.788;2023-07-20T07:58:26;5.10;;;4.70;;
74245;SDS011;62601;51.044;13.788;2023-07-20T08:00:46;4.80;;;4.30;;
74245;SDS011;62601;51.044;13.788;2023-07-20T08:03:06;5.20;;;4.33;;
74245;SDS011;62601;51.044;13.788;2023-07-20T08:05:26;4.00;;;3.63;;
74245;SDS011;62601;51.044;13.788;2023-07-20T08:07:46;6.53;;;3.77;;
74245;SDS011;62601;51.044;13.788;2023-07-20T08:10:07;5.47;;;4.53;;
74245;SDS011;62601;51.044;13.788;2023-07-20T08:12:27;4.50;;;4.10;;
74245;SDS011;62601;51.044;13.788;2023-07-20T08:14:47;4.67;;;4.27;;
74245;SDS011;62601;51.044;13.788;2023-07-20T08:17:07;4.63;;;4.23;;
74245;SDS011;62601;51.044;13.788;2023-07-20T08:19:27;5.43;;;5.00;;
74245;SDS011;62601;51.044;13.788;2023-07-20T08:21:47;7.27;;;5.27;;
74245;SDS011;62601;51.044;13.788;2023-07-20T08:24:07;5.20;;;4.77;;
74245;SDS011;62601;51.044;13.788;2023-07-20T08:26:28;4.63;;;4.23;;
74245;SDS011;62601;51.044;13.788;2023-07-20T08:28:48;6.03;;;5.20;;
74245;SDS011;62601;51.044;13.788;2023-07-20T08:31:08;6.17;;;5.70;;
74245;SDS011;62601;51.044;13.788;2023-07-20T08:33:28;5.70;;;5.27;;
74245;SDS011;62601;51.044;13.788;2023-07-20T08:35:48;6.80;;;5.37;;
74245;SDS011;62601;51.044;13.788;2023-07-20T08:38:08;5.60;;;5.20;;
74245;SDS011;62601;51.044;13.788;2023-07-20T08:40:28;5.43;;;5.03;;
74245;SDS011;62601;51.044;13.788;2023-07-20T08:42:48;6.10;;;5.60;;
74245;SDS011;62601;51.044;13.788;2023-07-20T08:45:09;6.70;;;6.20;;
74245;SDS011;62601;51.044;13.788;2023-07-20T08:47:29;7.10;;;6.50;;
74245;SDS011;62601;51.044;13.788;2023-07-20T08:49:49;6.90;;;6.37;;
74245;SDS011;62601;51.044;13.788;2023-07-20T08:52:09;9.63;;;8.70;;
74245;SDS011;62601;51.044;13.788;2023-07-20T08:54:30;6.70;;;6.10;;
74245;SDS011;62601;51.044;13.788;2023-07-20T08:56:50;6.50;;;6.00;;
74245;SDS011;62601;51.044;13.788;2023-07-20T08:59:10;6.57;;;5.90;;
74245;SDS011;62601;51.044;13.788;2023-07-20T09:01:32;7.33;;;5.67;;
74245;SDS011;62601;51.044;13.788;2023-07-20T09:03:52;6.30;;;5.70;;
74245;SDS011;62601;51.044;13.788;2023-07-20T09:06:12;6.87;;;5.83;;
74245;SDS011;62601;51.044;13.788;2023-07-20T09:08:32;5.90;;;5.47;;
74245;SDS011;62601;51.044;13.788;2023-07-20T09:10:53;4.90;;;4.60;;
74245;SDS011;62601;51.044;13.788;2023-07-20T09:13:16;5.73;;;4.93;;
74245;SDS011;62601;51.044;13.788;2023-07-20T09:15:36;5.43;;;4.77;;
74245;SDS011;62601;51.044;13.788;2023-07-20T09:17:56;5.10;;;4.70;;
74245;SDS011;62601;51.044;13.788;2023-07-20T09:20:17;5.13;;;4.80;;
74245;SDS011;62601;51.044;13.788;2023-07-20T09:22:37;5.20;;;4.80;;
74245;SDS011;62601;51.044;13.788;2023-07-20T09:24:58;5.30;;;4.80;;
74245;SDS011;62601;51.044;13.788;2023-07-20T09:27:18;5.20;;;4.77;;
74245;SDS011;62601;51.044;13.788;2023-07-20T09:29:51;5.10;;;4.80;;
74245;SDS011;62601;51.044;13.788;2023-07-20T09:32:11;5.47;;;4.97;;
74245;SDS011;62601;51.044;13.788;2023-07-20T09:34:31;5.57;;;5.10;;
74245;SDS011;62601;51.044;13.788;2023-07-20T09:36:52;5.10;;;4.70;;
74245;SDS011;62601;51.044;13.788;2023-07-20T09:39:12;5.40;;;4.90;;
74245;SDS011;62601;51.044;13.788;2023-07-20T09:41:41;5.00;;;4.70;;
74245;SDS011;62601;51.044;13.788;2023-07-20T09:44:01;7.23;;;5.33;;
74245;SDS011;62601;51.044;13.788;2023-07-20T09:46:22;4.90;;;4.60;;
74245;SDS011;62601;51.044;13.788;2023-07-20T09:48:42;5.50;;;5.00;;
74245;SDS011;62601;51.044;13.788;2023-07-20T09:51:11;5.03;;;4.63;;
74245;SDS011;62601;51.044;13.788;2023-07-20T09:53:32;5.00;;;4.70;;
74245;SDS011;62601;51.044;13.788;2023-07-20T09:55:52;5.47;;;5.07;;
74245;SDS011;62601;51.044;13.788;2023-07-20T09:58:13;5.20;;;4.80;;
74245;SDS011;62601;51.044;13.788;2023-07-20T10:00:34;5.60;;;5.10;;
74245;SDS011;62601;51.044;13.788;2023-07-20T10:02:55;5.50;;;5.00;;
74245;SDS011;62601;51.044;13.788;2023-07-20T10:05:15;5.27;;;4.77;;
74245;SDS011;62601;51.044;13.788;2023-07-20T10:07:36;7.80;;;7.10;;
74245;SDS011;62601;51.044;13.788;2023-07-20T10:10:00;9.00;;;6.67;;
74245;SDS011;62601;51.044;13.788;2023-07-20T10:12:21;8.13;;;7.43;;
74245;SDS011;62601;51.044;13.788;2023-07-20T10:14:43;10.07;;;8.60;;
74245;SDS011;62601;51.044;13.788;2023-07-20T10:17:04;7.93;;;7.13;;
74245;SDS011;62601;51.044;13.788;2023-07-20T10:21:49;6.83;;;6.17;;
74245;SDS011;62601;51.044;13.788;2023-07-20T10:24:11;7.57;;;6.90;;
74245;SDS011;62601;51.044;13.788;2023-07-20T10:26:31;8.50;;;7.90;;
74245;SDS011;62601;51.044;13.788;2023-07-20T10:28:51;7.90;;;7.20;;
74245;SDS011;62601;51.044;13.788;2023-07-20T10:31:12;7.63;;;7.10;;
74245;SDS011;62601;51.044;13.788;2023-07-20T10:33:32;9.20;;;8.40;;
74245;SDS011;62601;51.044;13.788;2023-07-20T10:35:54;9.10;;;8.33;;
74245;SDS011;62601;51.044;13.788;2023-07-20T10:38:14;8.80;;;8.10;;
74245;SDS011;62601;51.044;13.788;2023-07-20T10:40:36;10.30;;;9.53;;
74245;SDS011;62601;51.044;13.788;2023-07-20T10:42:58;9.53;;;8.83;;
74245;SDS011;62601;51.044;13.788;2023-07-20T10:45:18;8.83;;;8.13;;
74245;SDS011;62601;51.044;13.788;2023-07-20T10:47:44;8.23;;;7.50;;
74245;SDS011;62601;51.044;13.788;2023-07-20T10:50:05;8.27;;;7.73;;
74245;SDS011;62601;51.044;13.788;2023-07-20T10:52:25;8.23;;;7.63;;
74245;SDS011;62601;51.044;13.788;2023-07-20T10:54:49;8.00;;;7.40;;
74245;SDS011;62601;51.044;13.788;2023-07-20T10:57:23;7.40;;;6.90;;
74245;SDS011;62601;51.044;13.788;2023-07-20T10:59:43;7.03;;;6.53;;
74245;SDS011;62601;51.044;13.788;2023-07-20T11:02:07;6.80;;;6.20;;
74245;SDS011;62601;51.044;13.788;2023-07-20T11:04:43;6.67;;;6.17;;
74245;SDS011;62601;51.044;13.788;2023-07-20T11:07:04;6.70;;;6.10;;
74245;SDS011;62601;51.044;13.788;2023-07-20T11:09:24;6.07;;;5.53;;
74245;SDS011;62601;51.044;13.788;2023-07-20T11:11:46;5.27;;;4.80;;
74245;SDS011;62601;51.044;13.788;2023-07-20T11:14:07;5.40;;;4.93;;
74245;SDS011;62601;51.044;13.788;2023-07-20T11:16:41;5.90;;;5.40;;
74245;SDS011;62601;51.044;13.788;2023-07-20T11:19:01;6.13;;;5.50;;
74245;SDS011;62601;51.044;13.788;2023-07-20T11:21:22;5.60;;;5.20;;
74245;SDS011;62601;51.044;13.788;2023-07-20T11:23:42;6.07;;;5.60;;
74245;SDS011;62601;51.044;13.788;2023-07-20T11:26:02;6.20;;;5.80;;
74245;SDS011;62601;51.044;13.788;2023-07-20T11:28:23;5.87;;;5.47;;
74245;SDS011;62601;51.044;13.788;2023-07-20T11:30:43;6.90;;;6.30;;
74245;SDS011;62601;51.044;13.788;2023-07-20T11:33:03;6.80;;;6.30;;
74245;SDS011;62601;51.044;13.788;2023-07-20T11:35:23;10.03;;;9.03;;
74245;SDS011;62601;51.044;13.788;2023-07-20T11:37:43;7.07;;;6.57;;
74245;SDS011;62601;51.044;13.788;2023-07-20T11:40:03;6.20;;;5.70;;
74245;SDS011;62601;51.044;13.788;2023-07-20T11:42:24;7.00;;;6.50;;
74245;SDS011;62601;51.044;13.788;2023-07-20T11:44:44;5.63;;;5.23;;
74245;SDS011;62601;51.044;13.788;2023-07-20T11:47:05;6.07;;;5.50;;
74245;SDS011;62601;51.044;13.788;2023-07-20T11:49:25;5.50;;;5.20;;
74245;SDS011;62601;51.044;13.788;2023-07-20T11:51:45;5.77;;;5.40;;
74245;SDS011;62601;51.044;13.788;2023-07-20T11:54:07;6.10;;;5.60;;
74245;SDS011;62601;51.044;13.788;2023-07-20T11:56:27;6.20;;;5.80;;
74245;SDS011;62601;51.044;13.788;2023-07-20T11:58:47;5.83;;;5.47;;
74245;SDS011;62601;51.044;13.788;2023-07-20T12:01:08;5.93;;;5.63;;
74245;SDS011;62601;51.044;13.788;2023-07-20T12:03:28;5.07;;;4.77;;
74245;SDS011;62601;51.044;13.788;2023-07-20T12:05:49;6.00;;;5.60;;
74245;SDS011;62601;51.044;13.788;2023-07-20T12:08:09;5.50;;;5.20;;
74245;SDS011;62601;51.044;13.788;2023-07-20T12:10:29;6.43;;;6.03;;
74245;SDS011;62601;51.044;13.788;2023-07-20T12:12:49;6.03;;;5.60;;
74245;SDS011;62601;51.044;13.788;2023-07-20T12:15:13;5.50;;;5.20;;
74245;SDS011;62601;51.044;13.788;2023-07-20T12:17:34;6.20;;;5.80;;
74245;SDS011;62601;51.044;13.788;2023-07-20T12:19:57;5.73;;;5.37;;
74245;SDS011;62601;51.044;13.788;2023-07-20T12:22:17;6.40;;;5.90;;
74245;SDS011;62601;51.044;13.788;2023-07-20T12:24:37;5.97;;;5.57;;
74245;SDS011;62601;51.044;13.788;2023-07-20T12:26:57;6.80;;;6.30;;
74245;SDS011;62601;51.044;13.788;2023-07-20T12:29:17;8.93;;;8.33;;
74245;SDS011;62601;51.044;13.788;2023-07-20T12:31:38;7.87;;;7.03;;
74245;SDS011;62601;51.044;13.788;2023-07-20T12:33:58;7.17;;;6.77;;
74245;SDS011;62601;51.044;13.788;2023-07-20T12:36:18;7.97;;;7.37;;
74245;SDS011;62601;51.044;13.788;2023-07-20T12:38:38;7.40;;;6.93;;
74245;SDS011;62601;51.044;13.788;2023-07-20T12:41:00;8.27;;;7.47;;
74245;SDS011;62601;51.044;13.788;2023-07-20T12:43:20;7.50;;;7.00;;
74245;SDS011;62601;51.044;13.788;2023-07-20T12:45:41;8.07;;;7.47;;
74245;SDS011;62601;51.044;13.788;2023-07-20T12:48:01;8.50;;;7.90;;
74245;SDS011;62601;51.044;13.788;2023-07-20T12:50:21;8.13;;;7.57;;
74245;SDS011;62601;51.044;13.788;2023-07-20T12:52:41;6.63;;;6.13;;
74245;SDS011;62601;51.044;13.788;2023-07-20T12:55:02;5.60;;;5.20;;
74245;SDS011;62601;51.044;13.788;2023-07-20T12:57:22;6.10;;;5.67;;
74245;SDS011;62601;51.044;13.788;2023-07-20T12:59:42;5.50;;;5.10;;
74245;SDS011;62601;51.044;13.788;2023-07-20T13:02:02;5.07;;;4.67;;
74245;SDS011;62601;51.044;13.788;2023-07-20T13:04:22;4.43;;;4.13;;
74245;SDS011;62601;51.044;13.788;2023-07-20T13:06:42;4.20;;;3.90;;
74245;SDS011;62601;51.044;13.788;2023-07-20T13:09:03;5.30;;;4.50;;
74245;SDS011;62601;51.044;13.788;2023-07-20T13:11:23;4.90;;;4.50;;
74245;SDS011;62601;51.044;13.788;2023-07-20T13:13:43;4.67;;;4.37;;
74245;SDS011;62601;51.044;13.788;2023-07-20T13:16:03;5.07;;;4.70;;
74245;SDS011;62601;51.044;13.788;2023-07-20T13:18:23;4.40;;;4.10;;
74245;SDS011;62601;51.044;13.788;2023-07-20T13:20:43;4.70;;;4.30;;
74245;SDS011;62601;51.044;13.788;2023-07-20T13:23:04;3.63;;;3.43;;
74245;SDS011;62601;51.044;13.788;2023-07-20T13:25:24;3.80;;;3.50;;
74245;SDS011;62601;51.044;13.788;2023-07-20T13:27:44;4.30;;;4.07;;
74245;SDS011;62601;51.044;13.788;2023-07-20T13:30:05;3.97;;;3.77;;
74245;SDS011;62601;51.044;13.788;2023-07-20T13:32:25;3.80;;;3.60;;
74245;SDS011;62601;51.044;13.788;2023-07-20T13:34:45;4.07;;;3.57;;
74245;SDS011;62601;51.044;13.788;2023-07-20T13:37:05;3.63;;;3.33;;
74245;SDS011;62601;51.044;13.788;2023-07-20T13:39:26;3.30;;;3.10;;
74245;SDS011;62601;51.044;13.788;2023-07-20T13:41:46;3.90;;;3.50;;
74245;SDS011;62601;51.044;13.788;2023-07-20T13:44:06;3.10;;;2.90;;
74245;SDS011;62601;51.044;13.788;2023-07-20T13:46:26;4.17;;;3.73;;
74245;SDS011;62601;51.044;13.788;2023-07-20T13:48:46;4.93;;;3.73;;
74245;SDS011;62601;51.044;13.788;2023-07-20T13:51:06;3.63;;;3.13;;
74245;SDS011;62601;51.044;13.788;2023-07-20T13:53:26;3.23;;;3.03;;
74245;SDS011;62601;51.044;13.788;2023-07-20T13:55:46;2.90;;;2.70;;
74245;SDS011;62601;51.044;13.788;2023-07-20T13:58:06;3.23;;;2.47;;
74245;SDS011;62601;51.044;13.788;2023-07-20T14:00:26;2.93;;;2.70;;